In Rescue
 
Open Full Screen Window  High Contrast Mode
Wind Gusting 00 knots
03
May 25, 2022 9:50 PM CDT
Present Weather: Light Drizzle
Weather Information
Wind Direction
  030 °
Wind Speed
  03 kt (3 mph)
Wind Gust
  00 kt (0 mph)
Altimeter
29.96 in
Visibility
5 SM
Temperature
08° C
46° F
Dewpoint
07° C
45° F
Humidity
93%
1hr Rain Fall
00.00 in.
24hr Rain Fall
00.00 in.
Sky Condition
Overcast @ 7,000 ft
Broken @ 1,900 ft
Scattered @ 700 ft
MVFR

METAR KCQM 260250Z AUTO 03003KT 5SM -DZ SCT007 BKN019 OVC070 08/07 A2996 RMK AO2

FAA Disclaimer: The data displayed is for advisory purposes only and is not to be used for flight planning or operations.